createdAt,value
2022-08-24T00:00:21.768Z,2.63
2022-08-24T00:01:23.688Z,2.37
2022-08-24T00:02:25.640Z,2.87
2022-08-24T00:03:27.511Z,3.10
2022-08-24T00:04:36.311Z,2.50
2022-08-24T00:05:37.880Z,2.43
2022-08-24T00:06:39.447Z,2.73
2022-08-24T00:07:41.400Z,3.37
2022-08-24T00:08:43.355Z,2.53
2022-08-24T00:09:49.983Z,2.83
2022-08-24T00:10:52.607Z,2.80
2022-08-24T00:11:54.169Z,2.60
2022-08-24T00:12:55.767Z,2.90
2022-08-24T00:13:57.440Z,2.80
2022-08-24T00:14:59.098Z,2.40
2022-08-24T00:16:00.983Z,3.07
2022-08-24T00:17:03.350Z,3.10
2022-08-24T00:18:05.940Z,2.50
2022-08-24T00:19:07.590Z,2.80
2022-08-24T00:20:11.416Z,2.90
2022-08-24T00:21:13.135Z,2.50
2022-08-24T00:22:14.801Z,3.30
2022-08-24T00:23:16.640Z,3.23
2022-08-24T00:24:18.692Z,2.70
2022-08-24T00:25:20.954Z,2.67
2022-08-24T00:26:28.475Z,2.87
2022-08-24T00:27:31.069Z,2.57
2022-08-24T00:28:33.153Z,2.53
2022-08-24T00:29:35.988Z,2.60
2022-08-24T00:30:38.146Z,2.57
2022-08-24T00:31:39.900Z,2.93
2022-08-24T00:32:46.350Z,2.60
2022-08-24T00:33:48.141Z,2.67
2022-08-24T00:34:58.353Z,2.87
2022-08-24T00:36:01.183Z,2.87
2022-08-24T00:37:02.907Z,3.80
2022-08-24T00:38:04.645Z,2.50
2022-08-24T00:39:07.954Z,3.07
2022-08-24T00:40:13.513Z,3.37
2022-08-24T00:41:15.486Z,2.70
2022-08-24T00:42:17.208Z,2.87
2022-08-24T00:43:21.943Z,2.73
2022-08-24T00:44:23.514Z,2.40
2022-08-24T00:45:25.129Z,2.60
2022-08-24T00:46:51.236Z,2.53
2022-08-24T00:48:07.368Z,2.83
2022-08-24T00:49:17.425Z,3.27
2022-08-24T00:50:25.453Z,3.10
2022-08-24T00:51:31.141Z,2.90
2022-08-24T00:52:38.937Z,3.30
2022-08-24T00:53:45.649Z,3.07
2022-08-24T00:54:53.143Z,3.00
2022-08-24T00:55:58.194Z,2.70
2022-08-24T00:57:04.287Z,3.13
2022-08-24T00:58:16.312Z,2.80
2022-08-24T00:59:25.764Z,2.63
2022-08-24T01:00:34.071Z,3.00
2022-08-24T01:01:36.310Z,3.03
2022-08-24T01:02:42.103Z,3.10
2022-08-24T01:03:46.344Z,2.87
2022-08-24T01:04:54.702Z,2.60
2022-08-24T01:05:56.695Z,3.10
2022-08-24T01:06:59.640Z,2.70
2022-08-24T01:08:03.869Z,2.97
2022-08-24T01:09:06.825Z,3.00
2022-08-24T01:10:12.421Z,2.70
2022-08-24T01:11:18.075Z,2.90
2022-08-24T01:12:20.127Z,3.00
2022-08-24T01:13:23.053Z,2.83
2022-08-24T01:14:24.835Z,2.57
2022-08-24T01:15:26.661Z,3.03
2022-08-24T01:16:47.219Z,3.40
2022-08-24T01:18:08.225Z,2.50
2022-08-24T01:19:39.884Z,3.40
2022-08-24T01:20:45.920Z,3.07
2022-08-24T01:22:03.059Z,3.23
2022-08-24T01:23:42.370Z,2.50
2022-08-24T01:24:44.926Z,2.73
2022-08-24T01:25:49.703Z,2.70
2022-08-24T01:26:52.376Z,2.80
2022-08-24T01:27:57.321Z,2.97
2022-08-24T01:29:03.424Z,3.00
2022-08-24T01:30:11.767Z,2.67
2022-08-24T01:31:13.715Z,2.50
2022-08-24T01:32:18.518Z,2.90
2022-08-24T01:33:33.971Z,2.80
2022-08-24T01:34:36.204Z,2.70
2022-08-24T01:35:39.347Z,2.70
2022-08-24T01:36:48.530Z,3.07
2022-08-24T01:37:51.104Z,2.40
2022-08-24T01:38:54.518Z,2.70
2022-08-24T01:39:59.129Z,2.53
2022-08-24T01:41:04.425Z,2.67
2022-08-24T01:42:06.747Z,2.93
2022-08-24T01:43:08.653Z,2.60
2022-08-24T01:44:10.564Z,2.67
2022-08-24T01:45:12.425Z,2.87
2022-08-24T01:46:15.290Z,3.37
2022-08-24T01:47:17.324Z,3.00
2022-08-24T01:48:22.689Z,2.67
2022-08-24T01:49:29.203Z,2.80
2022-08-24T01:50:31.633Z,2.70
2022-08-24T01:51:33.705Z,2.60
2022-08-24T01:53:03.390Z,3.07
2022-08-24T01:54:00.789Z,2.67
2022-08-24T01:55:06.749Z,3.07
2022-08-24T01:56:08.369Z,2.80
2022-08-24T01:57:10.606Z,3.20
2022-08-24T01:58:16.698Z,3.13
2022-08-24T01:59:20.161Z,3.67
2022-08-24T02:00:22.493Z,2.67
2022-08-24T02:01:24.369Z,3.57
2022-08-24T02:02:30.562Z,3.30
2022-08-24T02:03:32.172Z,2.83
2022-08-24T02:04:35.764Z,3.40
2022-08-24T02:05:37.709Z,3.50
2022-08-24T02:06:39.353Z,3.60
2022-08-24T02:07:41.633Z,3.33
2022-08-24T02:08:43.136Z,3.73
2022-08-24T02:09:45.051Z,3.10
2022-08-24T02:10:54.882Z,2.50
2022-08-24T02:11:58.757Z,2.90
2022-08-24T02:13:00.496Z,2.70
2022-08-24T02:14:02.314Z,2.87
2022-08-24T02:15:07.906Z,2.80
2022-08-24T02:16:09.812Z,3.40
2022-08-24T02:17:12.111Z,3.80
2022-08-24T02:18:15.337Z,3.10
2022-08-24T02:19:17.512Z,3.07
2022-08-24T02:20:21.556Z,3.37
2022-08-24T02:21:24.728Z,3.27
2022-08-24T02:22:26.631Z,2.93
2022-08-24T02:23:28.796Z,3.90
2022-08-24T02:24:30.537Z,3.80
2022-08-24T02:25:32.609Z,3.20
2022-08-24T02:26:34.261Z,3.27
2022-08-24T02:27:38.634Z,3.17
2022-08-24T02:28:42.691Z,2.80
2022-08-24T02:29:44.723Z,3.37
2022-08-24T02:30:47.178Z,3.70
2022-08-24T02:31:48.890Z,3.20
2022-08-24T02:32:50.552Z,3.30
2022-08-24T02:33:52.222Z,3.50
2022-08-24T02:34:54.761Z,3.47
2022-08-24T02:35:57.009Z,3.27
2022-08-24T02:36:58.542Z,3.70
2022-08-24T02:38:00.144Z,3.70
2022-08-24T02:39:02.243Z,3.67
2022-08-24T02:40:05.244Z,3.30
2022-08-24T02:41:07.194Z,2.97
2022-08-24T02:42:08.751Z,3.40
2022-08-24T02:43:10.500Z,3.07
2022-08-24T02:44:12.150Z,3.20
2022-08-24T02:45:14.161Z,3.33
2022-08-24T02:46:20.876Z,3.07
2022-08-24T02:47:22.609Z,3.40
2022-08-24T02:48:40.047Z,3.50
2022-08-24T02:49:41.613Z,3.20
2022-08-24T02:50:45.812Z,3.60
2022-08-24T02:51:48.348Z,3.60
2022-08-24T02:52:50.304Z,3.77
2022-08-24T02:53:52.118Z,3.23
2022-08-24T02:54:53.687Z,3.10
2022-08-24T02:55:55.284Z,3.47
2022-08-24T02:56:56.924Z,3.07
2022-08-24T02:57:58.615Z,3.40
2022-08-24T02:59:00.907Z,3.27
2022-08-24T03:00:07.033Z,3.30
2022-08-24T03:01:13.736Z,3.50
2022-08-24T03:02:19.331Z,3.37
2022-08-24T03:03:21.031Z,3.70
2022-08-24T03:04:22.579Z,3.20
2022-08-24T03:05:33.276Z,3.33
2022-08-24T03:06:34.960Z,3.47
2022-08-24T03:07:36.912Z,3.97
2022-08-24T03:08:38.881Z,3.70
2022-08-24T03:09:40.447Z,3.47
2022-08-24T03:10:42.101Z,3.47
2022-08-24T03:11:45.300Z,3.30
2022-08-24T03:12:48.209Z,3.30
2022-08-24T03:13:49.856Z,3.87
2022-08-24T03:14:51.495Z,3.20
2022-08-24T03:15:55.438Z,3.30
2022-08-24T03:16:57.047Z,3.93
2022-08-24T03:17:58.647Z,3.90
2022-08-24T03:19:00.352Z,3.57
2022-08-24T03:20:04.167Z,3.37
2022-08-24T03:21:06.085Z,3.70
2022-08-24T03:22:07.929Z,3.70
2022-08-24T03:23:09.470Z,3.80
2022-08-24T03:24:11.197Z,4.10
2022-08-24T03:25:15.035Z,3.30
2022-08-24T03:26:16.760Z,4.00
2022-08-24T03:27:18.639Z,4.13
2022-08-24T03:28:24.085Z,3.43
2022-08-24T03:29:26.024Z,3.40
2022-08-24T03:30:27.794Z,3.53
2022-08-24T03:31:29.675Z,3.50
2022-08-24T03:32:32.215Z,3.67
2022-08-24T03:33:33.780Z,3.90
2022-08-24T03:34:35.495Z,2.87
2022-08-24T03:35:37.594Z,3.60
2022-08-24T03:36:40.627Z,4.20
2022-08-24T03:37:42.345Z,4.03
2022-08-24T03:38:44.845Z,3.77
2022-08-24T03:39:48.105Z,3.90
2022-08-24T03:40:49.817Z,4.03
2022-08-24T03:41:51.507Z,3.50
2022-08-24T03:42:54.327Z,4.10
2022-08-24T03:43:56.857Z,3.77
2022-08-24T03:44:58.462Z,3.97
2022-08-24T03:46:02.299Z,4.40
2022-08-24T03:47:04.007Z,4.40
2022-08-24T03:48:05.659Z,3.53
2022-08-24T03:49:11.398Z,3.33
2022-08-24T03:50:13.514Z,3.80
2022-08-24T03:51:18.659Z,3.73
2022-08-24T03:52:20.203Z,4.33
2022-08-24T03:53:27.003Z,3.77
2022-08-24T03:54:28.737Z,3.70
2022-08-24T03:55:30.334Z,3.67
2022-08-24T03:56:32.147Z,3.53
2022-08-24T03:57:34.926Z,4.00
2022-08-24T03:58:38.371Z,3.90
2022-08-24T03:59:46.566Z,3.87
2022-08-24T04:00:50.004Z,3.77
2022-08-24T04:01:51.827Z,3.73
2022-08-24T04:02:53.485Z,3.97
2022-08-24T04:03:55.386Z,3.70
2022-08-24T04:04:57.157Z,3.70
2022-08-24T04:05:58.777Z,3.80
2022-08-24T04:07:02.449Z,3.60
2022-08-24T04:08:06.572Z,3.73
2022-08-24T04:09:08.146Z,3.47
2022-08-24T04:10:11.325Z,3.70
2022-08-24T04:11:15.544Z,4.00
2022-08-24T04:12:17.463Z,3.30
2022-08-24T04:13:19.149Z,3.90
2022-08-24T04:14:26.817Z,3.77
2022-08-24T04:15:31.654Z,4.53
2022-08-24T04:16:33.902Z,3.43
2022-08-24T04:17:35.527Z,3.53
2022-08-24T04:18:37.196Z,3.50
2022-08-24T04:19:57.377Z,4.17
2022-08-24T04:20:59.198Z,4.00
2022-08-24T04:22:00.868Z,3.63
2022-08-24T04:23:03.122Z,3.37
2022-08-24T04:24:06.794Z,4.23
2022-08-24T04:25:09.889Z,3.67
2022-08-24T04:26:11.639Z,3.47
2022-08-24T04:27:13.217Z,4.37
2022-08-24T04:28:18.645Z,3.70
2022-08-24T04:29:21.172Z,3.93
2022-08-24T04:30:22.992Z,4.23
2022-08-24T04:31:25.413Z,4.10
2022-08-24T04:32:32.279Z,3.70
2022-08-24T04:33:34.358Z,4.00
2022-08-24T04:34:35.996Z,4.00
2022-08-24T04:35:42.297Z,3.77
2022-08-24T04:36:45.170Z,3.67
2022-08-24T04:37:46.846Z,3.87
2022-08-24T04:38:48.959Z,3.50
2022-08-24T04:39:50.947Z,4.43
2022-08-24T04:40:52.909Z,3.93
2022-08-24T04:41:56.485Z,4.70
2022-08-24T04:43:01.638Z,3.90
2022-08-24T04:44:03.914Z,4.13
2022-08-24T04:45:05.790Z,4.00
2022-08-24T04:46:08.125Z,4.20
2022-08-24T04:47:10.000Z,3.90
2022-08-24T04:48:16.107Z,4.10
2022-08-24T04:49:17.813Z,3.83
2022-08-24T04:50:19.370Z,3.53
2022-08-24T04:51:21.321Z,3.83
2022-08-24T04:52:22.974Z,4.23
2022-08-24T04:53:24.884Z,3.93
2022-08-24T04:54:27.390Z,3.67
2022-08-24T04:55:29.091Z,3.77
2022-08-24T04:56:30.951Z,4.40
2022-08-24T04:57:34.085Z,4.10
2022-08-24T04:58:35.666Z,4.30
2022-08-24T04:59:37.390Z,4.20
2022-08-24T05:00:39.371Z,4.20
2022-08-24T05:01:42.249Z,4.40
2022-08-24T05:02:45.187Z,4.53
2022-08-24T05:03:49.159Z,4.80
2022-08-24T05:04:50.835Z,4.40
2022-08-24T05:05:52.919Z,4.83
2022-08-24T05:06:54.596Z,5.03
2022-08-24T05:07:56.767Z,4.23
2022-08-24T05:09:00.373Z,4.10
2022-08-24T05:10:02.243Z,3.70
2022-08-24T05:11:07.822Z,4.03
2022-08-24T05:12:09.515Z,3.90
2022-08-24T05:13:11.649Z,4.03
2022-08-24T05:14:13.489Z,4.40
2022-08-24T05:15:16.264Z,4.10
2022-08-24T05:16:18.130Z,4.20
2022-08-24T05:17:19.866Z,4.80
2022-08-24T05:18:21.572Z,4.30
2022-08-24T05:19:23.708Z,4.47
2022-08-24T05:20:26.192Z,3.60
2022-08-24T05:21:28.478Z,4.60
2022-08-24T05:22:30.051Z,4.23
2022-08-24T05:23:32.887Z,4.53
2022-08-24T05:24:34.773Z,4.00
2022-08-24T05:25:37.549Z,3.50
2022-08-24T05:26:40.448Z,4.20
2022-08-24T05:27:43.777Z,4.00
2022-08-24T05:28:46.520Z,4.03
2022-08-24T05:29:52.592Z,4.40
2022-08-24T05:30:54.288Z,3.90
2022-08-24T05:31:55.860Z,4.33
2022-08-24T05:32:58.042Z,3.93
2022-08-24T05:34:01.429Z,3.80
2022-08-24T05:35:04.938Z,3.50
2022-08-24T05:36:15.048Z,3.70
2022-08-24T05:37:16.609Z,4.03
2022-08-24T05:38:18.227Z,3.97
2022-08-24T05:39:19.951Z,3.63
2022-08-24T05:40:21.986Z,3.60
2022-08-24T05:41:24.332Z,3.60
2022-08-24T05:42:26.474Z,3.70
2022-08-24T05:43:28.225Z,4.20
2022-08-24T05:44:31.584Z,3.43
2022-08-24T05:45:33.254Z,3.77
2022-08-24T05:46:35.412Z,3.80
2022-08-24T05:47:37.201Z,3.60
2022-08-24T05:48:39.102Z,4.60
2022-08-24T05:49:41.649Z,3.67
2022-08-24T05:50:43.425Z,4.43
2022-08-24T05:51:45.089Z,3.17
2022-08-24T05:52:46.679Z,3.50
2022-08-24T05:53:48.375Z,3.37
2022-08-24T05:54:55.400Z,3.67
2022-08-24T05:55:57.143Z,3.67
2022-08-24T05:57:04.846Z,3.97
2022-08-24T05:58:06.722Z,3.30
2022-08-24T05:59:08.282Z,3.90
2022-08-24T06:00:12.054Z,4.00
2022-08-24T06:01:20.937Z,3.10
2022-08-24T06:02:23.755Z,4.07
2022-08-24T06:03:26.758Z,4.40
2022-08-24T06:04:29.194Z,4.10
2022-08-24T06:05:31.049Z,4.43
2022-08-24T06:06:34.847Z,4.80
2022-08-24T06:07:36.600Z,3.40
2022-08-24T06:08:41.597Z,4.10
2022-08-24T06:09:43.585Z,3.87
2022-08-24T06:10:50.004Z,4.57
2022-08-24T06:11:51.631Z,3.13
2022-08-24T06:12:53.658Z,3.60
2022-08-24T06:13:59.177Z,3.60
2022-08-24T06:15:00.987Z,3.60
2022-08-24T06:16:20.739Z,3.77
2022-08-24T06:17:23.694Z,3.67
2022-08-24T06:18:26.736Z,3.70
2022-08-24T06:19:28.398Z,3.77
2022-08-24T06:20:30.810Z,3.60
2022-08-24T06:21:33.153Z,3.73
2022-08-24T06:22:34.788Z,3.70
2022-08-24T06:23:36.718Z,3.00
2022-08-24T06:24:59.000Z,3.23
2022-08-24T06:26:23.059Z,4.10
2022-08-24T06:27:26.322Z,3.30
2022-08-24T06:28:28.168Z,2.70
2022-08-24T06:29:30.708Z,4.50
2022-08-24T06:30:32.436Z,3.43
2022-08-24T06:31:41.936Z,3.30
2022-08-24T06:32:44.180Z,3.47
2022-08-24T06:33:45.992Z,3.47
2022-08-24T06:34:47.724Z,3.33
2022-08-24T06:35:49.873Z,3.60
2022-08-24T06:36:51.510Z,3.77
2022-08-24T06:37:53.240Z,3.70
2022-08-24T06:38:55.863Z,3.50
2022-08-24T06:39:59.595Z,3.47
2022-08-24T06:41:01.269Z,3.83
2022-08-24T06:42:03.074Z,3.20
2022-08-24T06:43:05.189Z,3.80
2022-08-24T06:44:08.602Z,3.43
2022-08-24T06:45:10.944Z,2.97
2022-08-24T06:46:12.795Z,3.30
2022-08-24T06:47:14.641Z,3.03
2022-08-24T06:48:16.983Z,2.43
2022-08-24T06:49:19.129Z,2.73
2022-08-24T06:50:22.093Z,3.37
2022-08-24T06:51:26.462Z,2.97
2022-08-24T06:52:28.620Z,3.13
2022-08-24T06:53:30.286Z,3.60
2022-08-24T06:54:32.667Z,3.20
2022-08-24T06:55:34.360Z,3.07
2022-08-24T06:56:37.930Z,3.20
2022-08-24T06:57:39.525Z,3.30
2022-08-24T06:58:41.660Z,3.30
2022-08-24T06:59:44.129Z,2.60
2022-08-24T07:00:46.684Z,3.20
2022-08-24T07:01:48.272Z,3.20
2022-08-24T07:02:49.983Z,3.47
2022-08-24T07:03:52.838Z,3.03
2022-08-24T07:04:54.559Z,3.03
2022-08-24T07:05:57.811Z,3.33
2022-08-24T07:07:00.741Z,2.70
2022-08-24T07:08:03.740Z,2.63
2022-08-24T07:09:05.600Z,2.57
2022-08-24T07:10:09.442Z,2.70
2022-08-24T07:11:14.443Z,3.20
2022-08-24T07:12:16.267Z,3.03
2022-08-24T07:13:18.034Z,2.47
2022-08-24T07:14:20.220Z,2.50
2022-08-24T07:15:22.103Z,2.67
2022-08-24T07:16:23.819Z,1.93
2022-08-24T07:17:25.825Z,2.20
2022-08-24T07:18:28.810Z,2.93
2022-08-24T07:19:30.426Z,2.93
2022-08-24T07:20:32.076Z,3.27
2022-08-24T07:21:34.382Z,2.53
2022-08-24T07:22:35.973Z,3.00
2022-08-24T07:23:41.736Z,2.30
2022-08-24T07:24:44.434Z,2.13
2022-08-24T07:25:48.990Z,3.00
2022-08-24T07:26:52.931Z,3.07
2022-08-24T07:27:54.564Z,2.63
2022-08-24T07:29:04.755Z,2.80
2022-08-24T07:30:25.836Z,2.70
2022-08-24T07:31:31.984Z,2.63
2022-08-24T07:32:34.961Z,2.33
2022-08-24T07:33:36.730Z,2.60
2022-08-24T07:34:38.339Z,2.57
2022-08-24T07:35:40.327Z,2.13
2022-08-24T07:36:44.479Z,2.60
2022-08-24T07:37:46.815Z,2.67
2022-08-24T07:38:48.613Z,3.03
2022-08-24T07:39:50.233Z,3.17
2022-08-24T07:42:20.780Z,2.80
2022-08-24T07:43:27.423Z,2.50
2022-08-24T07:44:31.054Z,2.23
2022-08-24T07:45:33.588Z,2.60
2022-08-24T07:46:35.370Z,2.60
2022-08-24T07:47:41.671Z,2.57
2022-08-24T07:48:46.528Z,2.40
2022-08-24T07:49:48.185Z,2.60
2022-08-24T07:50:49.955Z,2.50
2022-08-24T07:51:53.325Z,2.60
2022-08-24T07:52:54.929Z,2.67
2022-08-24T07:53:56.977Z,2.70
2022-08-24T07:54:58.616Z,2.33
2022-08-24T07:56:00.415Z,2.10
2022-08-24T07:57:06.255Z,2.67
2022-08-24T07:58:07.895Z,2.23
2022-08-24T07:59:13.325Z,2.63
2022-08-24T08:00:17.297Z,2.67
2022-08-24T08:01:19.807Z,3.00
2022-08-24T08:02:21.528Z,2.80
2022-08-24T08:03:25.294Z,3.53
2022-08-24T08:04:27.750Z,2.72
2022-08-24T08:05:29.420Z,3.05
2022-08-24T08:06:31.033Z,3.13
2022-08-24T08:07:35.003Z,2.67
2022-08-24T08:08:39.149Z,2.83
2022-08-24T08:09:40.990Z,2.70
2022-08-24T08:10:43.947Z,2.60
2022-08-24T08:11:45.935Z,2.85
2022-08-24T08:12:47.549Z,2.80
2022-08-24T08:13:49.577Z,3.53
2022-08-24T08:14:51.177Z,2.97
2022-08-24T08:15:54.646Z,2.58
2022-08-24T08:16:57.321Z,2.83
2022-08-24T08:17:59.455Z,2.90
2022-08-24T08:19:09.851Z,2.58
2022-08-24T08:20:12.443Z,2.40
2022-08-24T08:21:33.490Z,2.33
2022-08-24T08:22:54.498Z,2.50
2022-08-24T08:24:15.113Z,2.47
2022-08-24T08:25:18.359Z,3.00
2022-08-24T08:26:21.075Z,3.25
2022-08-24T08:27:22.698Z,2.88
2022-08-24T08:28:35.249Z,3.67
2022-08-24T08:29:43.366Z,2.95
2022-08-24T08:30:45.954Z,3.20
2022-08-24T08:31:48.493Z,2.85
2022-08-24T08:32:50.095Z,3.60
2022-08-24T08:33:51.662Z,3.22
2022-08-24T08:34:53.433Z,2.85
2022-08-24T08:36:22.772Z,2.90
2022-08-24T08:37:26.182Z,3.30
2022-08-24T08:38:28.158Z,3.20
2022-08-24T08:39:30.506Z,3.25
2022-08-24T08:40:55.474Z,3.10
2022-08-24T08:42:16.723Z,3.40
2022-08-24T08:43:32.737Z,2.90
2022-08-24T08:45:08.443Z,3.03
2022-08-24T08:46:22.037Z,2.47
2022-08-24T08:47:44.675Z,3.05
2022-08-24T08:49:03.487Z,3.58
2022-08-24T08:50:18.638Z,2.83
2022-08-24T08:51:48.458Z,2.88
2022-08-24T08:53:11.205Z,2.30
2022-08-24T08:54:37.545Z,2.10
2022-08-24T08:55:53.411Z,2.15
2022-08-24T08:57:33.874Z,2.88
2022-08-24T08:58:59.432Z,2.30
2022-08-24T09:00:16.275Z,2.58
2022-08-24T09:01:33.121Z,2.88
2022-08-24T09:02:44.304Z,3.10
2022-08-24T09:04:21.446Z,2.40
2022-08-24T09:05:48.593Z,2.47
2022-08-24T09:07:15.977Z,2.28
2022-08-24T09:08:41.405Z,2.13
2022-08-24T09:09:52.161Z,2.28
2022-08-24T09:10:54.716Z,2.65
2022-08-24T09:11:59.462Z,2.20
2022-08-24T09:13:19.320Z,2.45
2022-08-24T09:14:33.165Z,2.58
2022-08-24T09:15:49.938Z,2.72
2022-08-24T09:17:14.909Z,2.38
2022-08-24T09:18:31.532Z,2.25
2022-08-24T09:19:34.004Z,2.15
2022-08-24T09:20:35.573Z,2.38
2022-08-24T09:22:11.819Z,3.28
2022-08-24T09:23:33.938Z,2.55
2022-08-24T09:24:57.180Z,2.90
2022-08-24T09:26:07.935Z,2.35
2022-08-24T09:27:21.955Z,2.35
2022-08-24T09:28:43.951Z,2.28
2022-08-24T09:30:14.056Z,1.63
2022-08-24T09:31:57.367Z,1.83
2022-08-24T09:33:12.975Z,1.75
2022-08-24T09:34:35.944Z,2.38
2022-08-24T09:35:37.735Z,2.10
2022-08-24T09:37:04.149Z,1.63
2022-08-24T09:38:05.705Z,2.05
2022-08-24T09:39:25.655Z,2.20
2022-08-24T09:41:18.746Z,2.42
2022-08-24T09:42:48.019Z,2.65
2022-08-24T09:43:58.325Z,1.95
2022-08-24T09:45:27.309Z,2.03
2022-08-24T09:46:53.337Z,1.92
2022-08-24T09:48:19.109Z,2.17
2022-08-24T09:49:39.469Z,2.13
2022-08-24T09:51:38.120Z,2.30
2022-08-24T09:53:01.825Z,1.80
2022-08-24T09:54:09.389Z,2.70
2022-08-24T09:55:39.044Z,2.50
2022-08-24T09:57:14.212Z,1.70
2022-08-24T09:58:50.417Z,1.90
2022-08-24T10:00:01.029Z,1.60
2022-08-24T10:01:21.055Z,1.60
2022-08-24T10:02:47.552Z,1.70
2022-08-24T10:04:05.946Z,2.50
2022-08-24T10:05:16.511Z,1.50
2022-08-24T10:06:57.358Z,1.70
2022-08-24T10:08:20.505Z,2.05
2022-08-24T10:09:56.007Z,1.67
2022-08-24T10:11:04.672Z,1.90
2022-08-24T10:12:12.084Z,2.20
2022-08-24T10:13:32.068Z,1.73
2022-08-24T10:14:48.906Z,2.55
2022-08-24T10:16:03.535Z,2.30
2022-08-24T10:17:32.186Z,1.90
2022-08-24T10:18:52.590Z,2.13
2022-08-24T10:19:54.151Z,2.40
2022-08-24T10:21:17.636Z,2.35
2022-08-24T10:22:39.878Z,2.25
2022-08-24T10:23:49.698Z,2.08
2022-08-24T10:25:06.015Z,1.92
2022-08-24T10:26:26.063Z,2.38
2022-08-24T10:28:15.880Z,2.50
2022-08-24T10:29:23.665Z,1.55
2022-08-24T10:30:52.468Z,2.13
2022-08-24T10:32:15.454Z,2.75
2022-08-24T10:33:30.661Z,2.40
2022-08-24T10:34:59.492Z,2.22
2022-08-24T10:36:16.484Z,2.50
2022-08-24T10:37:37.602Z,2.40
2022-08-24T10:39:08.993Z,2.17
2022-08-24T10:40:10.861Z,2.35
2022-08-24T10:41:39.356Z,2.15
2022-08-24T10:43:34.405Z,2.78
2022-08-24T10:45:00.983Z,2.85
2022-08-24T10:46:27.504Z,2.60
2022-08-24T10:47:30.997Z,2.30
2022-08-24T10:48:33.241Z,2.22
2022-08-24T10:49:36.067Z,2.92
2022-08-24T10:50:59.089Z,1.80
2022-08-24T10:52:38.092Z,2.30
2022-08-24T10:53:40.079Z,1.85
2022-08-24T10:54:41.943Z,1.70
2022-08-24T10:55:44.079Z,2.20
2022-08-24T10:56:45.628Z,2.55
2022-08-24T10:58:06.640Z,2.08
2022-08-24T10:59:14.107Z,2.42
2022-08-24T11:00:23.252Z,2.15
2022-08-24T11:01:33.791Z,2.67
2022-08-24T11:02:39.125Z,2.30
2022-08-24T11:03:53.269Z,2.53
2022-08-24T11:05:08.092Z,1.80
2022-08-24T11:06:15.514Z,2.50
2022-08-24T11:07:20.753Z,2.00
2022-08-24T11:08:25.607Z,1.98
2022-08-24T11:09:44.281Z,2.03
2022-08-24T11:10:46.641Z,2.53
2022-08-24T11:11:50.138Z,1.90
2022-08-24T11:12:51.795Z,2.55
2022-08-24T11:14:01.966Z,2.30
2022-08-24T11:15:19.453Z,1.80
2022-08-24T11:16:32.119Z,2.38
2022-08-24T11:17:34.887Z,1.67
2022-08-24T11:18:49.408Z,1.98
2022-08-24T11:19:51.864Z,2.22
2022-08-24T11:20:55.765Z,2.35
2022-08-24T11:22:04.563Z,2.13
2022-08-24T11:23:16.992Z,2.00
2022-08-24T11:24:18.641Z,2.13
2022-08-24T11:25:25.674Z,2.22
2022-08-24T11:26:27.460Z,2.33
2022-08-24T11:27:35.422Z,2.03
2022-08-24T11:28:40.898Z,2.08
2022-08-24T11:29:51.676Z,1.95
2022-08-24T11:30:53.365Z,2.80
2022-08-24T11:31:55.005Z,1.65
2022-08-24T11:32:59.709Z,2.00
2022-08-24T11:34:07.972Z,1.70
2022-08-24T11:35:23.994Z,2.47
2022-08-24T11:36:28.095Z,2.58
2022-08-24T11:37:39.279Z,1.95
2022-08-24T11:38:45.789Z,2.10
2022-08-24T11:39:47.800Z,2.05
2022-08-24T11:41:15.790Z,2.78
2022-08-24T11:42:30.012Z,2.22
2022-08-24T11:43:43.544Z,1.95
2022-08-24T11:44:59.709Z,2.40
2022-08-24T11:46:35.814Z,1.95
2022-08-24T11:47:52.844Z,1.50
2022-08-24T11:49:07.240Z,1.90
2022-08-24T11:50:22.975Z,1.60
2022-08-24T11:51:43.475Z,1.70
2022-08-24T11:53:12.392Z,1.50
2022-08-24T11:54:22.063Z,2.08
2022-08-24T11:56:01.265Z,2.63
2022-08-24T11:57:12.262Z,2.08
2022-08-24T11:58:24.554Z,1.83
2022-08-24T11:59:54.218Z,2.08
2022-08-24T12:01:04.904Z,2.70
2022-08-24T12:02:18.567Z,1.73
2022-08-24T12:03:42.137Z,2.45
2022-08-24T12:04:57.300Z,1.80
2022-08-24T12:06:31.450Z,2.00
2022-08-24T12:07:39.944Z,1.95
2022-08-24T12:09:19.438Z,2.10
2022-08-24T12:10:41.177Z,1.90
2022-08-24T12:11:56.235Z,2.20
2022-08-24T12:13:04.625Z,2.45
2022-08-24T12:14:22.042Z,1.67
2022-08-24T12:15:41.909Z,1.65
2022-08-24T12:17:19.378Z,1.67
2022-08-24T12:19:06.158Z,2.15
2022-08-24T12:20:32.021Z,1.55
2022-08-24T12:21:38.994Z,1.85
2022-08-24T12:22:42.723Z,1.70
2022-08-24T12:23:48.849Z,1.70
2022-08-24T12:24:55.687Z,1.55
2022-08-24T12:26:03.506Z,1.60
2022-08-24T12:27:10.681Z,1.55
2022-08-24T12:28:14.885Z,1.88
2022-08-24T12:29:28.668Z,1.85
2022-08-24T12:30:30.660Z,1.75
2022-08-24T12:31:43.460Z,1.85
2022-08-24T12:32:54.285Z,1.60
2022-08-24T12:34:00.139Z,1.65
2022-08-24T12:35:09.304Z,1.60
2022-08-24T12:36:21.946Z,1.67
2022-08-24T12:37:23.785Z,1.90
2022-08-24T12:38:33.407Z,2.13
2022-08-24T12:39:45.037Z,1.50
2022-08-24T12:40:56.465Z,1.55
2022-08-24T12:42:08.670Z,2.10
2022-08-24T12:43:48.267Z,2.30
2022-08-24T12:44:54.335Z,1.60
2022-08-24T12:46:00.221Z,1.77
2022-08-24T12:47:03.109Z,1.88
2022-08-24T12:48:16.223Z,2.03
2022-08-24T12:49:31.115Z,2.33
2022-08-24T12:51:09.439Z,1.65
2022-08-24T12:52:26.725Z,1.70
2022-08-24T12:54:07.591Z,1.98
2022-08-24T12:55:24.815Z,1.88
2022-08-24T12:57:10.289Z,2.33
2022-08-24T12:58:34.891Z,2.00
2022-08-24T12:59:47.525Z,2.20
2022-08-24T13:00:50.676Z,2.60
2022-08-24T13:02:21.993Z,1.88
2022-08-24T13:03:34.756Z,1.52
2022-08-24T13:04:48.977Z,1.30
2022-08-24T13:05:57.800Z,1.90
2022-08-24T13:07:05.769Z,1.95
2022-08-24T13:08:16.162Z,1.70
2022-08-24T13:09:43.354Z,1.85
2022-08-24T13:10:54.124Z,1.30
2022-08-24T13:11:57.027Z,2.10
2022-08-24T13:13:04.837Z,2.00
2022-08-24T13:14:20.873Z,1.77
2022-08-24T13:15:25.775Z,1.67
2022-08-24T13:16:56.811Z,1.80
2022-08-24T13:18:10.127Z,2.05
2022-08-24T13:19:27.095Z,1.75
2022-08-24T13:20:34.990Z,1.73
2022-08-24T13:21:42.025Z,2.17
2022-08-24T13:23:07.356Z,1.42
2022-08-24T13:24:31.186Z,1.30
2022-08-24T13:25:49.915Z,1.33
2022-08-24T13:26:51.736Z,1.63
2022-08-24T13:28:08.669Z,1.67
2022-08-24T13:29:15.068Z,1.92
2022-08-24T13:30:24.891Z,2.55
2022-08-24T13:31:34.992Z,1.83
2022-08-24T13:33:05.705Z,1.38
2022-08-24T13:34:09.120Z,2.00
2022-08-24T13:35:57.569Z,1.67
2022-08-24T13:37:16.494Z,1.38
2022-08-24T13:38:24.304Z,1.58
2022-08-24T13:39:58.347Z,1.77
2022-08-24T13:41:14.490Z,1.70
2022-08-24T13:42:44.523Z,1.80
2022-08-24T13:43:51.905Z,1.60
2022-08-24T13:44:59.853Z,1.60
2022-08-24T13:46:38.629Z,1.75
2022-08-24T13:47:56.568Z,1.80
2022-08-24T13:49:02.683Z,1.65
2022-08-24T13:50:27.391Z,1.45
2022-08-24T13:51:40.788Z,2.10
2022-08-24T13:53:04.105Z,2.08
2022-08-24T13:54:20.332Z,1.80
2022-08-24T13:55:50.244Z,1.80
2022-08-24T13:57:21.403Z,2.10
2022-08-24T13:58:34.572Z,1.98
2022-08-24T13:59:55.935Z,2.00
2022-08-24T14:01:26.957Z,2.20
2022-08-24T14:02:53.813Z,1.52
2022-08-24T14:04:08.188Z,2.00
2022-08-24T14:05:43.557Z,1.55
2022-08-24T14:07:00.318Z,1.30
2022-08-24T14:08:25.091Z,1.50
2022-08-24T14:09:58.500Z,1.98
2022-08-24T14:11:07.470Z,1.52
2022-08-24T14:12:09.028Z,2.13
2022-08-24T14:13:35.560Z,1.70
2022-08-24T14:15:11.415Z,2.22
2022-08-24T14:17:02.245Z,1.95
2022-08-24T14:18:10.342Z,2.00
2022-08-24T14:19:41.109Z,1.70
2022-08-24T14:20:51.863Z,2.10
2022-08-24T14:21:59.267Z,1.48
2022-08-24T14:23:06.912Z,1.48
2022-08-24T14:24:13.315Z,1.67
2022-08-24T14:25:21.315Z,2.03
2022-08-24T14:26:43.935Z,1.63
2022-08-24T14:28:34.220Z,1.83
2022-08-24T14:29:40.602Z,1.65
2022-08-24T14:30:45.051Z,1.30
2022-08-24T14:31:52.684Z,1.60
2022-08-24T14:33:00.315Z,1.88
2022-08-24T14:34:31.848Z,1.88
2022-08-24T14:35:46.930Z,1.95
2022-08-24T14:37:02.184Z,1.40
2022-08-24T14:38:25.049Z,1.92
2022-08-24T14:39:38.888Z,2.17
2022-08-24T14:40:55.510Z,1.50
2022-08-24T14:42:04.043Z,1.52
2022-08-24T14:43:11.863Z,1.42
2022-08-24T14:44:19.849Z,1.50
2022-08-24T14:45:56.785Z,1.77
2022-08-24T14:47:33.676Z,1.52
2022-08-24T14:48:55.027Z,1.90
2022-08-24T14:50:15.163Z,1.40
2022-08-24T14:51:47.559Z,1.40
2022-08-24T14:53:07.222Z,1.55
2022-08-24T14:54:22.642Z,1.70
2022-08-24T14:56:01.136Z,1.30
2022-08-24T14:57:17.225Z,1.88
2022-08-24T14:58:39.182Z,1.80
2022-08-24T15:00:05.193Z,1.52
2022-08-24T15:01:36.587Z,1.70
2022-08-24T15:03:09.244Z,1.70
2022-08-24T15:04:39.826Z,1.67
2022-08-24T15:06:09.599Z,1.50
2022-08-24T15:07:28.935Z,1.30
2022-08-24T15:08:43.757Z,1.40
2022-08-24T15:09:45.819Z,1.38
2022-08-24T15:11:02.555Z,1.67
2022-08-24T15:12:25.301Z,1.70
2022-08-24T15:13:33.836Z,1.70
2022-08-24T15:14:51.739Z,2.20
2022-08-24T15:16:01.006Z,1.88
2022-08-24T15:17:09.803Z,1.73
2022-08-24T15:18:21.694Z,2.22
2022-08-24T15:19:30.790Z,2.10
2022-08-24T15:20:48.746Z,1.60
2022-08-24T15:22:08.730Z,1.58